Lancaster, SC

3:38 AM EST on February 09, 2016 (GMT -0500)
Country Club Estates | | Change Station
CLOSE
Current Station
Personal Weather Station
Location: Lancaster, SC
Elevation: 522 ft
Nearby Weather Stations
Active Advisory: Lake Wind Advisory

Elev 522 ft 34.67 °N, 80.77 °W | Updated 2 minutes ago

Clear
Clear
29.7 °F
Feels Like 26 °F
N
3.2
Wind Variable Wind from SSW

Today
High -- | Low -- °F
--% Chance of Precip.
Yesterday
High -- | Low -- °F
Precip. -- in
Pressure 29.70 in
Visibility 10.0 miles
Clouds Few 1600 ft
Scattered Clouds 6000 ft
Overcast 8000 ft
Windchill 26 °F
Dew Point 29 °F
Humidity 96%
Rainfall 0.00 in
Snow Depth Not available.
7:15 AM 5:59 PM
New Moon, 1% visible
METAR KEQY 090753Z AUTO 00000KT 10SM FEW016 SCT060 OVC080 01/00 A2965 RMK AO2 RAB10E22B37E39UPB39E41SNB22E37 SLP056 P0002 T00110000
Pressure 29.70 in
Visibility 10.0 miles
Clouds Few 1600 ft
Scattered Clouds 6000 ft
Overcast 8000 ft
Windchill 26 °F
Dew Point 29 °F
Humidity 96%
Rainfall 0.00 in
Snow Depth Not available.
7:15 AM 5:59 PM
New Moon, 1% visible
METAR KEQY 090753Z AUTO 00000KT 10SM FEW016 SCT060 OVC080 01/00 A2965 RMK AO2 RAB10E22B37E39UPB39E41SNB22E37 SLP056 P0002 T00110000

10-Day Weather Forecast

Almanac

Astronomy

Feb. 09, 2016 Rise Set
Actual Time
Civil Twilight
Nautical Twilight
Astronomical Twilight
Moon
Length of Visible Light
Length of Day
Tomorrow will be .
, % of the Moon is Illuminated

Today's Extremes

State Highs State Lows

Community

WunderPhotos

Upload Photos

1,891,571 photos uploaded!

WunderBlog® & News

Nearby

Air Quality

  Air Quality AQ Index Pollutant
Not available.

Snow Depth

Station Depth Elevation

Earthquake Activity

City Distance Mag. Time & Date
Minimum magnitude displayed is 2.5.

Coastal Water Temperatures

Place Temperature

Stations

Nearby Weather Stations

Station Location Temp. Windchill Dew Point Humidity Wind Precip. Elev Updated Type
                   

Watches & Warnings

Lake Wind Advisory
Issued: 2:11 AM EST Feb. 9, 2016 – National Weather Service

... Lake Wind Advisory in effect until 11 PM EST Wednesday...

The National Weather Service in Columbia has issued a lake Wind
Advisory... which is in effect until 11 PM EST Wednesday.

* Timing... today through Wednesday evening.

* Winds... west 20 to 30 knots.

* Impacts... strong winds and rough chop will create hazardous
conditions for small craft and personal watercraft.

Precautionary/preparedness actions...

A lake Wind Advisory indicates that winds will cause rough chop
on area lakes. Small boats will be especially prone to capsizing.